createdAt,value
2022-11-29T00:01:36.232Z,7.15
2022-11-29T00:04:03.509Z,8.98
2022-11-29T00:06:33.015Z,7.65
2022-11-29T00:09:03.362Z,8.23
2022-11-29T00:12:02.752Z,7.50
2022-11-29T00:14:30.246Z,7.43
2022-11-29T00:17:01.862Z,7.93
2022-11-29T00:19:29.559Z,8.45
2022-11-29T00:21:56.479Z,8.25
2022-11-29T00:24:23.419Z,8.63
2022-11-29T00:26:50.280Z,8.60
2022-11-29T00:29:18.642Z,9.20
2022-11-29T00:31:45.935Z,8.70
2022-11-29T00:34:12.973Z,9.32
2022-11-29T00:36:40.300Z,8.80
2022-11-29T00:39:07.051Z,9.00
2022-11-29T00:41:33.934Z,9.05
2022-11-29T00:44:00.816Z,8.68
2022-11-29T00:46:27.615Z,9.05
2022-11-29T00:48:54.315Z,8.43
2022-11-29T00:51:21.069Z,8.48
2022-11-29T00:53:47.800Z,8.25
2022-11-29T00:56:14.613Z,9.35
2022-11-29T00:58:43.544Z,8.45
2022-11-29T01:01:11.178Z,8.27
2022-11-29T01:03:39.482Z,8.65
2022-11-29T01:06:11.807Z,8.38
2022-11-29T01:08:39.247Z,9.52
2022-11-29T01:11:07.444Z,9.13
2022-11-29T01:13:35.422Z,8.57
2022-11-29T01:16:02.635Z,8.93
2022-11-29T01:18:30.481Z,8.82
2022-11-29T01:21:45.165Z,9.73
2022-11-29T01:24:13.981Z,8.02
2022-11-29T01:26:40.973Z,9.15
2022-11-29T01:29:07.989Z,8.52
2022-11-29T01:31:38.183Z,9.68
2022-11-29T01:34:07.177Z,9.93
2022-11-29T01:36:35.271Z,9.05
2022-11-29T01:39:03.952Z,9.30
2022-11-29T01:41:33.319Z,10.32
2022-11-29T01:44:07.563Z,9.70
2022-11-29T01:46:37.533Z,9.43
2022-11-29T01:49:21.378Z,10.52
2022-11-29T01:52:02.919Z,9.63
2022-11-29T01:54:31.803Z,10.18
2022-11-29T01:56:59.640Z,10.43
2022-11-29T01:59:29.652Z,9.95
2022-11-29T02:02:12.655Z,10.57
2022-11-29T02:04:42.255Z,10.52
2022-11-29T02:07:09.518Z,10.93
2022-11-29T02:09:36.434Z,9.85
2022-11-29T02:12:16.247Z,9.60
2022-11-29T02:15:02.275Z,11.35
2022-11-29T02:17:36.142Z,10.73
2022-11-29T02:20:12.100Z,10.10
2022-11-29T02:23:24.748Z,9.98
2022-11-29T02:26:31.097Z,10.32
2022-11-29T02:29:17.808Z,9.35
2022-11-29T02:32:09.408Z,9.85
2022-11-29T02:34:51.267Z,10.23
2022-11-29T02:37:28.723Z,9.77
2022-11-29T02:40:14.298Z,10.35
2022-11-29T02:43:07.191Z,10.23
2022-11-29T02:45:52.852Z,8.63
2022-11-29T02:48:38.411Z,10.13
2022-11-29T02:51:08.512Z,9.13
2022-11-29T02:53:56.051Z,9.23
2022-11-29T02:56:34.817Z,9.35
2022-11-29T02:59:22.676Z,8.98
2022-11-29T03:02:03.246Z,9.55
2022-11-29T03:04:47.991Z,9.55
2022-11-29T03:07:44.542Z,9.95
2022-11-29T03:10:23.075Z,8.27
2022-11-29T03:12:52.929Z,9.45
2022-11-29T03:15:33.895Z,8.68
2022-11-29T03:18:33.004Z,8.70
2022-11-29T03:21:13.715Z,9.25
2022-11-29T03:24:18.183Z,8.80
2022-11-29T03:26:49.800Z,9.32
2022-11-29T03:29:40.524Z,9.05
2022-11-29T03:32:20.621Z,8.68
2022-11-29T03:34:55.704Z,8.00
2022-11-29T03:37:33.273Z,7.93
2022-11-29T03:40:06.686Z,8.35
2022-11-29T03:42:40.079Z,9.15
2022-11-29T03:45:30.139Z,10.10
2022-11-29T03:48:18.882Z,9.18
2022-11-29T03:50:53.675Z,8.20
2022-11-29T03:53:47.693Z,8.60
2022-11-29T03:56:34.013Z,8.40
2022-11-29T03:59:08.371Z,9.23
2022-11-29T04:01:55.942Z,8.93
2022-11-29T04:05:16.984Z,9.35
2022-11-29T04:07:47.880Z,8.68
2022-11-29T04:10:33.899Z,8.63
2022-11-29T04:13:24.980Z,9.57
2022-11-29T04:16:10.756Z,9.40
2022-11-29T04:18:55.360Z,9.52
2022-11-29T04:21:33.603Z,8.63
2022-11-29T04:24:28.826Z,8.52
2022-11-29T04:27:30.241Z,9.88
2022-11-29T04:30:08.494Z,9.35
2022-11-29T04:32:39.698Z,10.25
2022-11-29T04:35:19.681Z,9.82
2022-11-29T04:38:23.186Z,10.02
2022-11-29T04:41:05.207Z,9.55
2022-11-29T04:43:56.268Z,9.07
2022-11-29T04:46:26.048Z,9.53
2022-11-29T04:49:07.311Z,9.60
2022-11-29T04:52:06.137Z,9.70
2022-11-29T04:55:10.677Z,9.25
2022-11-29T04:57:45.384Z,9.23
2022-11-29T05:00:18.866Z,9.07
2022-11-29T05:03:07.406Z,10.05
2022-11-29T05:05:56.078Z,9.65
2022-11-29T05:08:41.054Z,9.07
2022-11-29T05:11:24.985Z,9.15
2022-11-29T05:14:10.496Z,8.98
2022-11-29T05:17:05.087Z,9.95
2022-11-29T05:19:56.688Z,10.00
2022-11-29T05:22:36.049Z,11.00
2022-11-29T05:25:02.679Z,10.45
2022-11-29T05:27:38.496Z,9.18
2022-11-29T05:30:05.446Z,9.45
2022-11-29T05:32:53.751Z,11.38
2022-11-29T05:36:02.601Z,9.27
2022-11-29T05:38:35.175Z,9.25
2022-11-29T05:41:01.827Z,8.73
2022-11-29T05:43:43.862Z,8.63
2022-11-29T05:46:39.103Z,9.23
2022-11-29T05:49:16.139Z,8.75
2022-11-29T05:51:51.819Z,9.38
2022-11-29T05:54:32.597Z,9.07
2022-11-29T05:57:19.550Z,9.82
2022-11-29T05:59:49.719Z,10.32
2022-11-29T06:02:35.216Z,10.65
2022-11-29T06:05:17.048Z,9.85
2022-11-29T06:07:56.516Z,9.50
2022-11-29T06:10:28.278Z,10.13
2022-11-29T06:15:50.717Z,10.48
2022-11-29T06:18:26.428Z,10.07
2022-11-29T06:21:12.674Z,10.77
2022-11-29T06:24:01.234Z,10.38
2022-11-29T06:27:05.296Z,10.75
2022-11-29T06:29:59.321Z,10.60
2022-11-29T06:32:29.020Z,10.20
2022-11-29T06:35:33.290Z,11.30
2022-11-29T06:38:08.799Z,11.77
2022-11-29T06:40:35.824Z,11.50
2022-11-29T06:43:02.790Z,11.25
2022-11-29T06:45:29.876Z,10.65
2022-11-29T06:48:02.440Z,11.10
2022-11-29T06:50:36.015Z,11.00
2022-11-29T06:53:05.633Z,10.90
2022-11-29T06:55:38.567Z,12.20
2022-11-29T06:58:39.738Z,13.85
2022-11-29T07:01:15.635Z,12.47
2022-11-29T07:03:55.852Z,14.40
2022-11-29T07:06:25.491Z,13.00
2022-11-29T07:08:56.621Z,12.57
2022-11-29T07:11:23.582Z,12.80
2022-11-29T07:13:50.971Z,13.23
2022-11-29T07:16:26.105Z,13.00
2022-11-29T07:19:14.676Z,12.93
2022-11-29T07:22:14.683Z,13.93
2022-11-29T07:25:00.545Z,14.10
2022-11-29T07:27:39.855Z,14.95
2022-11-29T07:30:16.840Z,14.80
2022-11-29T07:33:00.657Z,14.02
2022-11-29T07:35:45.886Z,15.30
2022-11-29T07:38:43.437Z,14.32
2022-11-29T07:41:33.436Z,15.73
2022-11-29T07:44:37.878Z,14.57
2022-11-29T07:47:04.919Z,13.18
2022-11-29T07:49:31.748Z,14.18
2022-11-29T07:52:01.639Z,12.82
2022-11-29T07:54:28.557Z,12.95
2022-11-29T07:56:55.303Z,12.75
2022-11-29T07:59:22.231Z,12.93
2022-11-29T08:01:49.055Z,12.35
2022-11-29T08:04:15.835Z,13.13
2022-11-29T08:06:42.630Z,14.13
2022-11-29T08:09:09.474Z,12.88
2022-11-29T08:11:36.257Z,12.90
2022-11-29T08:14:05.140Z,13.50
2022-11-29T08:16:32.184Z,12.93
2022-11-29T08:18:59.124Z,12.40
2022-11-29T08:21:25.983Z,12.73
2022-11-29T08:23:52.877Z,13.57
2022-11-29T08:26:20.959Z,14.02
2022-11-29T08:28:52.559Z,12.90
2022-11-29T08:31:20.608Z,13.07
2022-11-29T08:33:47.492Z,11.93
2022-11-29T08:36:19.440Z,10.82
2022-11-29T08:38:46.596Z,11.65
2022-11-29T08:41:16.740Z,11.25
2022-11-29T08:43:47.981Z,11.13
2022-11-29T08:46:18.932Z,12.50
2022-11-29T08:48:50.150Z,11.52
2022-11-29T08:51:16.964Z,11.57
2022-11-29T08:53:44.764Z,12.90
2022-11-29T08:59:05.943Z,10.70
2022-11-29T09:01:32.886Z,10.95
2022-11-29T09:03:59.732Z,10.90
2022-11-29T09:06:28.680Z,11.57
2022-11-29T09:08:56.726Z,10.52
2022-11-29T09:11:25.577Z,10.93
2022-11-29T09:13:55.183Z,10.60
2022-11-29T09:16:25.403Z,10.25
2022-11-29T09:18:55.814Z,10.25
2022-11-29T09:21:27.473Z,10.85
2022-11-29T09:26:31.943Z,11.80
2022-11-29T09:29:01.322Z,11.80
2022-11-29T09:31:29.710Z,11.45
2022-11-29T09:33:57.077Z,11.73
2022-11-29T09:36:28.384Z,12.27
2022-11-29T09:38:57.220Z,11.82
2022-11-29T09:41:26.899Z,12.38
2022-11-29T09:44:05.887Z,11.95
2022-11-29T09:46:44.364Z,11.23
2022-11-29T09:49:47.765Z,10.18
2022-11-29T09:52:52.744Z,10.55
2022-11-29T09:55:31.413Z,10.55
2022-11-29T09:58:00.961Z,11.13
2022-11-29T10:00:29.770Z,11.18
2022-11-29T10:03:02.746Z,11.57
2022-11-29T10:05:47.523Z,10.73
2022-11-29T10:08:27.636Z,10.07
2022-11-29T10:11:03.962Z,10.13
2022-11-29T10:13:35.787Z,9.80
2022-11-29T10:19:00.710Z,10.93
2022-11-29T10:21:36.363Z,10.63
2022-11-29T10:24:11.147Z,10.73
2022-11-29T10:26:41.468Z,10.82
2022-11-29T10:29:15.393Z,10.70
2022-11-29T10:31:46.928Z,11.60
2022-11-29T10:34:19.916Z,11.18
2022-11-29T10:36:51.258Z,11.50
2022-11-29T10:39:57.302Z,11.23
2022-11-29T10:42:47.093Z,10.75
2022-11-29T10:45:29.153Z,11.15
2022-11-29T10:48:01.916Z,10.60
2022-11-29T10:50:35.627Z,10.73
2022-11-29T10:53:17.528Z,10.23
2022-11-29T10:58:28.340Z,12.07
2022-11-29T11:01:08.580Z,10.98
2022-11-29T11:03:40.925Z,11.77
2022-11-29T11:06:21.255Z,10.77
2022-11-29T11:08:52.113Z,11.60
2022-11-29T11:11:31.428Z,10.80
2022-11-29T11:14:01.219Z,12.02
2022-11-29T11:16:31.584Z,11.75
2022-11-29T11:19:23.659Z,10.65
2022-11-29T11:21:51.173Z,11.05
2022-11-29T11:24:25.167Z,10.50
2022-11-29T11:26:51.979Z,11.38
2022-11-29T11:29:23.739Z,12.88
2022-11-29T11:31:54.748Z,10.32
2022-11-29T11:34:34.412Z,11.80
2022-11-29T11:37:16.453Z,11.10
2022-11-29T11:42:31.688Z,10.38
2022-11-29T11:44:59.320Z,12.25
2022-11-29T11:47:29.126Z,10.45
2022-11-29T11:50:15.076Z,11.43
2022-11-29T11:52:57.186Z,10.05
2022-11-29T11:55:43.976Z,10.88
2022-11-29T11:58:13.814Z,11.65
2022-11-29T12:01:05.654Z,10.52
2022-11-29T12:03:54.231Z,10.68
2022-11-29T12:06:45.480Z,10.45
2022-11-29T12:09:25.268Z,11.15
2022-11-29T12:12:27.154Z,12.10
2022-11-29T12:15:06.143Z,11.38
2022-11-29T12:18:00.797Z,10.93
2022-11-29T12:20:46.784Z,12.25
2022-11-29T12:23:13.724Z,13.07
2022-11-29T12:25:57.268Z,12.00
2022-11-29T12:28:38.351Z,11.98
2022-11-29T12:31:23.392Z,13.93
2022-11-29T12:34:10.369Z,12.63
2022-11-29T12:36:58.832Z,13.27
2022-11-29T12:39:52.552Z,12.77
2022-11-29T12:42:40.855Z,13.68
2022-11-29T12:45:25.747Z,12.50
2022-11-29T12:48:20.112Z,12.85
2022-11-29T12:51:16.349Z,12.38
2022-11-29T12:54:05.303Z,12.05
2022-11-29T12:56:47.707Z,12.57
2022-11-29T12:59:30.346Z,12.23
2022-11-29T13:02:35.855Z,11.15
2022-11-29T13:05:29.744Z,11.10
2022-11-29T13:07:57.218Z,11.93
2022-11-29T13:10:53.267Z,10.15
2022-11-29T13:13:35.152Z,11.40
2022-11-29T13:19:00.733Z,10.25
2022-11-29T13:21:47.758Z,10.80
2022-11-29T13:25:05.434Z,10.40
2022-11-29T13:27:40.545Z,10.48
2022-11-29T13:30:07.862Z,11.63
2022-11-29T13:32:36.266Z,11.27
2022-11-29T13:35:14.936Z,11.32
2022-11-29T13:38:09.538Z,10.95
2022-11-29T13:41:02.211Z,11.23
2022-11-29T13:44:10.608Z,11.15
2022-11-29T13:46:50.603Z,10.32
2022-11-29T13:49:22.337Z,11.40
2022-11-29T13:54:31.100Z,11.00
2022-11-29T13:57:06.683Z,11.25
2022-11-29T13:59:36.308Z,11.35
2022-11-29T14:02:04.359Z,11.32
2022-11-29T14:04:46.257Z,11.95
2022-11-29T14:07:18.544Z,12.07
2022-11-29T14:09:49.277Z,11.88
2022-11-29T14:12:35.950Z,11.90
2022-11-29T14:15:18.352Z,12.18
2022-11-29T14:18:02.031Z,11.00
2022-11-29T14:20:28.764Z,12.90
2022-11-29T14:23:04.325Z,11.38
2022-11-29T14:28:29.185Z,11.57
2022-11-29T14:31:01.870Z,11.57
2022-11-29T14:33:39.224Z,11.65
2022-11-29T14:36:17.236Z,11.52
2022-11-29T14:39:10.123Z,12.23
2022-11-29T14:42:04.374Z,11.65
2022-11-29T14:44:33.178Z,11.50
2022-11-29T14:47:14.763Z,11.88
2022-11-29T14:49:48.948Z,11.18
2022-11-29T14:52:25.602Z,11.25
2022-11-29T14:55:11.606Z,10.38
2022-11-29T14:57:47.347Z,11.23
2022-11-29T15:00:23.495Z,12.65
2022-11-29T15:03:16.856Z,11.85
2022-11-29T15:05:48.308Z,12.52
2022-11-29T15:08:28.808Z,11.77
2022-11-29T15:11:33.009Z,12.05
2022-11-29T15:14:12.429Z,11.40
2022-11-29T15:16:51.154Z,13.02
2022-11-29T15:19:55.651Z,12.25
2022-11-29T15:22:28.705Z,10.80
2022-11-29T15:25:02.779Z,12.23
2022-11-29T15:27:30.775Z,11.63
2022-11-29T15:29:58.908Z,11.32
2022-11-29T15:32:30.947Z,11.95
2022-11-29T15:34:58.623Z,11.30
2022-11-29T15:37:42.702Z,12.35
2022-11-29T15:40:21.532Z,11.88
2022-11-29T15:43:09.934Z,11.20
2022-11-29T15:45:38.832Z,12.13
2022-11-29T15:48:22.635Z,10.68
2022-11-29T15:50:52.472Z,11.80
2022-11-29T15:53:24.856Z,10.90
2022-11-29T15:55:54.146Z,10.98
2022-11-29T15:58:21.473Z,11.18
2022-11-29T16:00:49.797Z,11.95
2022-11-29T16:03:26.934Z,11.57
2022-11-29T16:06:02.078Z,11.68
2022-11-29T16:08:34.704Z,11.13
2022-11-29T16:11:01.843Z,11.80
2022-11-29T16:13:39.054Z,11.20
2022-11-29T16:16:08.638Z,11.55
2022-11-29T16:18:36.183Z,10.65
2022-11-29T16:21:05.757Z,12.60
2022-11-29T16:23:34.057Z,10.80
2022-11-29T16:26:09.491Z,11.75
2022-11-29T16:28:42.208Z,10.00
2022-11-29T16:31:14.913Z,10.95
2022-11-29T16:33:47.518Z,11.85
2022-11-29T16:36:18.835Z,10.45
2022-11-29T16:38:52.752Z,10.82
2022-11-29T16:41:34.632Z,11.23
2022-11-29T16:44:03.356Z,10.73
2022-11-29T16:46:31.498Z,10.85
2022-11-29T16:49:00.958Z,11.27
2022-11-29T16:51:38.801Z,11.77
2022-11-29T16:54:33.766Z,11.05
2022-11-29T16:57:05.230Z,11.05
2022-11-29T16:59:32.567Z,10.82
2022-11-29T17:01:59.613Z,10.43
2022-11-29T17:04:26.786Z,12.00
2022-11-29T17:06:55.092Z,10.48
2022-11-29T17:09:33.179Z,11.00
2022-11-29T17:12:01.198Z,10.57
2022-11-29T17:14:28.963Z,11.02
2022-11-29T17:16:56.099Z,10.88
2022-11-29T17:19:23.933Z,12.45
2022-11-29T17:21:52.652Z,13.23
2022-11-29T17:24:22.344Z,11.55
2022-11-29T17:26:49.580Z,12.25
2022-11-29T17:29:17.413Z,12.40
2022-11-29T17:31:45.855Z,11.30
2022-11-29T17:34:12.965Z,11.10
2022-11-29T17:36:40.863Z,11.00
2022-11-29T17:39:08.031Z,11.55
2022-11-29T17:41:34.960Z,11.32
2022-11-29T17:44:01.891Z,10.00
2022-11-29T17:46:34.041Z,10.10
2022-11-29T17:49:05.729Z,10.60
2022-11-29T17:54:19.576Z,9.52
2022-11-29T17:56:46.385Z,10.57
2022-11-29T17:59:13.085Z,9.20
2022-11-29T18:01:39.972Z,9.63
2022-11-29T18:04:06.821Z,9.23
2022-11-29T18:06:38.892Z,10.57
2022-11-29T18:09:08.574Z,9.73
2022-11-29T18:11:48.130Z,9.05
2022-11-29T18:14:21.348Z,9.43
2022-11-29T18:16:48.634Z,9.18
2022-11-29T18:19:18.476Z,9.45
2022-11-29T18:21:48.587Z,9.27
2022-11-29T18:24:15.378Z,8.27
2022-11-29T18:26:42.694Z,10.75
2022-11-29T18:29:09.875Z,9.13
2022-11-29T18:31:38.812Z,9.55
2022-11-29T18:34:09.678Z,9.13
2022-11-29T18:36:48.980Z,9.13
2022-11-29T18:39:19.100Z,9.05
2022-11-29T18:41:50.478Z,9.40
2022-11-29T18:44:20.536Z,8.93
2022-11-29T18:46:48.096Z,9.18
2022-11-29T18:49:16.745Z,9.13
2022-11-29T18:51:45.542Z,8.40
2022-11-29T18:54:14.460Z,9.27
2022-11-29T18:56:41.850Z,9.00
2022-11-29T18:59:14.870Z,8.90
2022-11-29T19:01:42.755Z,9.45
2022-11-29T19:04:13.348Z,9.27
2022-11-29T19:06:40.925Z,8.85
2022-11-29T19:09:12.768Z,10.07
2022-11-29T19:11:39.843Z,9.15
2022-11-29T19:14:12.820Z,9.73
2022-11-29T19:16:42.555Z,9.27
2022-11-29T19:19:09.835Z,9.25
2022-11-29T19:21:36.955Z,10.07
2022-11-29T19:24:07.658Z,9.40
2022-11-29T19:26:34.639Z,9.40
2022-11-29T19:29:01.916Z,11.07
2022-11-29T19:31:29.132Z,9.10
2022-11-29T19:33:57.129Z,9.75
2022-11-29T19:36:28.210Z,9.27
2022-11-29T19:38:55.568Z,9.73
2022-11-29T19:41:30.306Z,9.43
2022-11-29T19:43:59.303Z,9.20
2022-11-29T19:46:29.257Z,10.40
2022-11-29T19:48:57.272Z,9.52
2022-11-29T19:51:25.622Z,10.27
2022-11-29T19:53:54.437Z,8.88
2022-11-29T19:56:21.804Z,9.50
2022-11-29T19:58:48.686Z,10.73
2022-11-29T20:01:23.012Z,10.63
2022-11-29T20:03:50.626Z,9.93
2022-11-29T20:06:18.597Z,9.43
2022-11-29T20:08:45.457Z,9.07
2022-11-29T20:11:17.755Z,10.23
2022-11-29T20:13:46.712Z,10.27
2022-11-29T20:16:18.315Z,9.18
2022-11-29T20:18:50.922Z,10.20
2022-11-29T20:21:21.174Z,10.98
2022-11-29T20:23:49.813Z,9.32
2022-11-29T20:26:18.821Z,10.32
2022-11-29T20:28:46.873Z,8.80
2022-11-29T20:31:16.404Z,9.60
2022-11-29T20:33:45.834Z,9.13
2022-11-29T20:36:36.048Z,9.77
2022-11-29T20:39:31.041Z,9.02
2022-11-29T20:42:34.820Z,10.43
2022-11-29T20:45:04.851Z,9.95
2022-11-29T20:47:46.798Z,10.07
2022-11-29T20:50:23.104Z,10.55
2022-11-29T20:53:18.516Z,9.35
2022-11-29T20:55:48.274Z,9.75
2022-11-29T20:58:16.258Z,9.82
2022-11-29T21:00:46.150Z,10.05
2022-11-29T21:03:14.899Z,9.82
2022-11-29T21:05:42.120Z,11.10
2022-11-29T21:08:08.987Z,9.80
2022-11-29T21:10:36.160Z,9.75
2022-11-29T21:13:03.305Z,9.75
2022-11-29T21:15:30.423Z,9.57
2022-11-29T21:17:57.529Z,10.07
2022-11-29T21:20:26.536Z,9.73
2022-11-29T21:23:25.719Z,10.77
2022-11-29T21:26:17.163Z,9.77
2022-11-29T21:29:09.590Z,9.40
2022-11-29T21:31:36.734Z,9.13
2022-11-29T21:34:03.787Z,9.23
2022-11-29T21:36:30.674Z,8.63
2022-11-29T21:39:00.928Z,10.02
2022-11-29T21:41:32.015Z,10.38
2022-11-29T21:44:06.489Z,9.35
2022-11-29T21:46:34.694Z,10.05
2022-11-29T21:49:01.515Z,9.85
2022-11-29T21:51:28.219Z,10.82
2022-11-29T21:53:54.957Z,10.02
2022-11-29T21:56:21.750Z,9.95
2022-11-29T21:58:48.495Z,9.35
2022-11-29T22:01:20.266Z,9.07
2022-11-29T22:03:47.523Z,9.90
2022-11-29T22:06:20.507Z,9.20
2022-11-29T22:08:48.497Z,10.25
2022-11-29T22:11:30.582Z,9.90
2022-11-29T22:14:14.087Z,10.38
2022-11-29T22:16:50.801Z,9.95
2022-11-29T22:19:26.103Z,10.48
2022-11-29T22:21:57.191Z,10.00
2022-11-29T22:24:26.495Z,11.48
2022-11-29T22:26:53.899Z,9.07
2022-11-29T22:29:21.329Z,9.70
2022-11-29T22:31:50.433Z,10.93
2022-11-29T22:34:17.237Z,9.82
2022-11-29T22:36:44.010Z,9.70
2022-11-29T22:39:11.402Z,10.02
2022-11-29T22:41:39.505Z,10.27
2022-11-29T22:44:06.863Z,10.35
2022-11-29T22:46:35.685Z,10.30
2022-11-29T22:49:03.195Z,11.27
2022-11-29T22:51:33.045Z,10.82
2022-11-29T22:54:02.291Z,10.23
2022-11-29T22:56:31.682Z,10.35
2022-11-29T22:58:58.966Z,9.82
2022-11-29T23:01:27.883Z,10.10
2022-11-29T23:03:56.736Z,10.40
2022-11-29T23:06:28.924Z,11.32
2022-11-29T23:08:59.012Z,10.93
2022-11-29T23:11:28.616Z,10.50
2022-11-29T23:13:55.784Z,11.30
2022-11-29T23:16:25.779Z,9.88
2022-11-29T23:18:53.988Z,10.48
2022-11-29T23:21:23.766Z,9.32
2022-11-29T23:23:56.093Z,9.73
2022-11-29T23:26:45.461Z,10.52
2022-11-29T23:29:17.828Z,9.23
2022-11-29T23:31:45.212Z,9.85
2022-11-29T23:34:12.551Z,9.40
2022-11-29T23:36:39.615Z,10.32
2022-11-29T23:39:07.094Z,9.38
2022-11-29T23:41:35.566Z,10.20
2022-11-29T23:44:06.074Z,9.35
2022-11-29T23:46:33.193Z,10.63
2022-11-29T23:49:03.150Z,9.73
2022-11-29T23:51:30.034Z,9.75
2022-11-29T23:53:56.847Z,9.25
2022-11-29T23:56:23.631Z,9.38
2022-11-29T23:58:50.519Z,10.90
